• Join FlightAware (Why Join?)
  • Login
  • US Flag 
11:34PM EDT


 

Airport Tracker/Info


-or-


 

Live Flight TrackerFlight Track Log ✈ N960DL ✈ 01-May-2013 ✈ KATL - KHOU

Flight Track Log - Related Links

Times and Time Zones

All times are in EDT time to prevent confusion due to time zone crossing. See the N960DL flight status page for this flight to view local times or setup timezone preferences in your user account.

Time Position Orientation Groundspeed Altitude Reporting Facility
EDT Latitude Longitude Course Direction KTS MPH feet Rate Location/Type
04:26PM 33.6497 -84.3608 246° West 433 498 2,800  Level Atlanta Center
04:27PM 33.6667 -84.3333 53° Northeast 217 250 3,500 2,520 Climbing Atlanta TRACON
04:28PM 33.7167 -84.2833 40° Northeast 277 319 6,400 2,520 Climbing Atlanta TRACON
04:29PM 33.8000 -84.5332 270° West  Level FlightAware Approximate
04:29PM 33.8086 -84.3464 330° Northwest 279 321 10,400  Level Atlanta Center
04:30PM 33.7471 -84.6589 234° Southwest  Level FlightAware Approximate
04:30PM 33.8081 -84.4464 270° West 288 331 11,600  Level Atlanta Center
04:31PM 33.6752 -84.7759 234° Southwest  Level FlightAware Approximate
04:31PM 33.8014 -84.5839 267° West 369 425 13,300  Level Atlanta Center
04:32PM 33.6178 -84.9030 246° West  Level FlightAware Approximate
04:32PM 33.7383 -84.6908 235° Southwest 380 437 15,700  Level Atlanta Center
04:33PM 33.6708 -84.8225 238° Southwest 407 468 17,600 2,160 Climbing Atlanta Center
04:34PM 33.6072 -84.9517 239° Southwest 430 495 20,100 2,760 Climbing Atlanta Center
04:35PM 33.5622 -85.0808 247° West 437 503 23,200 2,160 Climbing Atlanta Center
04:36PM 33.5175 -85.2075 247° West 413 475 24,500 1,200 Climbing Atlanta Center
04:37PM 33.4931 -85.3417 258° West 413 475 25,700 1,200 Climbing Atlanta Center
04:38PM 33.4728 -85.4833 260° West 433 498 26,900 1,140 Climbing Atlanta Center
04:39PM 33.4500 -85.6247 259° West 433 498 28,000 900 Climbing Atlanta Center
04:40PM 33.4294 -85.7736 261° West 440 506 28,800 780 Climbing Atlanta Center
04:41PM 33.4022 -85.9125 257° West 440 506 29,600 900 Climbing Atlanta Center
04:42PM 33.3811 -86.0664 261° West 457 526 30,700 1,200 Climbing Atlanta Center
04:43PM 33.3597 -86.2075 260° West 457 526 32,000 1,500 Climbing Atlanta Center
04:44PM 33.3364 -86.3461 259° West 447 514 33,800 960 Climbing Atlanta Center
04:45PM 33.3131 -86.4747 258° West 424 488 34,000 60 Climbing Atlanta Center
04:46PM 33.2914 -86.6108 259° West 418 481 34,000  Level Atlanta Center
04:47PM 33.2744 -86.7322 261° West 418 481 34,000  Level Atlanta Center
04:48PM 33.2525 -86.8656 259° West 427 491 34,000  Level Atlanta Center
04:49PM 33.2097 -87.0058 250° West 427 491 34,000  Level Atlanta Center
04:50PM 33.1525 -87.1206 239° Southwest 418 481 34,000  Level Atlanta Center
04:51PM 33.1158 -87.2506 251° West 418 481 34,000  Level Atlanta Center
04:53PM 33.2053 -87.5244 291° West 427 491 34,000  Level Memphis Center
04:54PM 33.2522 -87.6619 292° West 443 510 34,000  Level Memphis Center
04:55PM 33.2967 -87.7972 291° West 443 510 34,000  Level Memphis Center
04:56PM 33.3414 -87.9353 291° West 443 510 34,000  Level Memphis Center
04:57PM 33.3878 -88.0733 292° West 443 510 34,000  Level Memphis Center
04:58PM 33.4383 -88.2114 294° West 448 516 34,000  Level Memphis Center
04:59PM 33.4822 -88.3497 291° West 448 516 34,000  Level Memphis Center
05:00PM 33.5283 -88.4858 292° West 448 516 34,000  Level Memphis Center
05:01PM 33.5700 -88.6269 290° West 448 516 34,000  Level Memphis Center
05:02PM 33.6156 -88.7683 291° West 448 516 34,000  Level Memphis Center
05:03PM 33.6611 -88.8947 293° West 453 521 34,000  Level Memphis Center
05:04PM 33.7044 -89.0314 291° West 448 516 34,000  Level Memphis Center
05:05PM 33.7539 -89.1731 293° West 448 516 34,000  Level Memphis Center
05:06PM 33.7967 -89.3122 290° West 448 516 34,000  Level Memphis Center
05:07PM 33.8439 -89.4669 290° West 448 516 34,000  Level Memphis Center
05:08PM 33.8886 -89.6064 291° West 448 516 34,000  Level Memphis Center
05:09PM 33.9289 -89.7339 291° West 448 516 34,000  Level Memphis Center
05:10PM 33.9736 -89.8789 290° West 453 521 34,000  Level Memphis Center
05:11PM 34.0200 -90.0189 292° West 453 521 34,000  Level Memphis Center
05:12PM 34.0619 -90.1517 291° West 453 521 34,000  Level Memphis Center
05:13PM 34.1122 -90.3094 291° West 453 521 34,000  Level Memphis Center
05:14PM 34.1622 -90.4700 291° West 453 521 34,000  Level Memphis Center
05:15PM 34.2058 -90.6133 290° West 458 527 34,000  Level Memphis Center
05:16PM 34.2117 -90.7667 273° West 458 527 34,000  Level Memphis Center
05:17PM 34.2008 -90.9172 265° West 453 521 34,000  Level Memphis Center
05:18PM 34.1936 -91.0678 267° West 459 528 34,000 60 Level Memphis Center
05:19PM 34.1864 -91.2258 267° West 459 528 34,200 360 Climbing Memphis Center
05:20PM 34.1292 -91.3533 242° Southwest 443 510 34,800 600 Climbing Memphis Center
05:21PM 34.0531 -91.4678 231° Southwest 438 504 35,500 420 Climbing Memphis Center
05:22PM 33.9853 -91.5672 231° Southwest 432 497 35,700 120 Climbing Memphis Center
05:24PM 33.8347 -91.7928 231° Southwest 433 498 36,000 60 Climbing Fort Worth Center
05:25PM 33.7581 -91.9025 230° Southwest 438 504 36,000  Level Fort Worth Center
05:26PM 33.6817 -92.0147 231° Southwest 444 511 36,000  Level Fort Worth Center
05:27PM 33.6031 -92.1292 231° Southwest 444 511 36,000  Level Fort Worth Center
05:28PM 33.5283 -92.2383 231° Southwest 439 505 36,000  Level Fort Worth Center
05:29PM 33.4514 -92.3472 230° Southwest 439 505 36,000  Level Fort Worth Center
05:30PM 33.3586 -92.4297 217° Southwest 420 483 36,000  Level Fort Worth Center
05:31PM 33.2406 -92.4489 188° South 401 461 36,000  Level Fort Worth Center
05:32PM 33.1264 -92.4675 188° South 408 470 36,000  Level Fort Worth Center
05:33PM 33.0103 -92.4864 188° South 418 481 36,000  Level Fort Worth Center
05:34PM 32.8942 -92.5078 189° South 423 487 36,000  Level Fort Worth Center
05:35PM 32.7781 -92.5264 188° South 423 487 36,000  Level Fort Worth Center
05:37PM 32.6028 -92.5614 190° South 433 498 36,000  Level Houston Center
05:38PM 32.4614 -92.5869 189° South 432 497 36,000  Level Houston Center
05:39PM 32.3422 -92.6178 192° South 438 504 36,000  Level Houston Center
05:40PM 32.2253 -92.6653 199° South 439 505 36,000  Level Houston Center
05:41PM 32.1258 -92.7436 214° Southwest 443 510 36,000  Level Houston Center
05:42PM 32.0386 -92.8378 222° Southwest 439 505 36,000  Level Houston Center
05:43PM 31.9500 -92.9375 224° Southwest 436 502 36,000  Level Houston Center
05:44PM 31.8467 -93.0553 224° Southwest 435 501 36,000  Level Houston Center
05:45PM 31.7569 -93.1514 222° Southwest 439 505 36,000  Level Houston Center
05:46PM 31.6683 -93.2483 223° Southwest 438 504 36,000  Level Houston Center
05:47PM 31.5833 -93.3475 225° Southwest 434 499 36,000  Level Houston Center
05:48PM 31.4950 -93.4450 223° Southwest 437 503 36,000  Level Houston Center
05:49PM 31.3889 -93.5625 223° Southwest 439 505 36,000  Level Houston Center
05:50PM 31.3042 -93.6525 222° Southwest 441 507 36,000  Level Houston Center
05:51PM 31.2075 -93.7564 223° Southwest 441 507 36,000 -300 Level Houston Center
05:52PM 31.1186 -93.8536 223° Southwest 441 507 35,400 -1,260 Descending Houston Center
05:53PM 31.0142 -93.9669 223° Southwest 443 510 33,400 -2,460 Descending Houston Center
05:54PM 30.9211 -94.0661 222° Southwest 440 506 30,400 -3,240 Descending Houston Center
05:55PM 30.8283 -94.1653 223° Southwest 447 514 26,800 -2,700 Descending Houston Center
05:57PM 30.7311 -94.2667 222° Southwest 463 533 24,900 -1,380 Descending Houston Center
05:58PM 30.6394 -94.3661 223° Southwest 457 526 24,000 -1,500 Descending Houston Center
05:59PM 30.5525 -94.4600 223° Southwest 439 505 21,900 -2,760 Descending Houston Center
05:59PM 30.4917 -94.5272 224° Southwest 422 486 19,700 -2,940 Descending Houston Center
06:00PM 30.4697 -94.5600 232° Southwest 420 483 18,900 -2,820 Descending Houston Center
06:00PM 30.4275 -94.6253 233° Southwest 410 472 17,100 -2,760 Descending Houston Center
06:01PM 30.3983 -94.6714 234° Southwest 410 472 16,100 -1,740 Descending Houston Center
06:01PM 30.3583 -94.7336 233° Southwest 395 455 15,200 -1,560 Descending Houston Center
06:02PM 30.3358 -94.7686 233° Southwest 380 437 14,500 -2,040 Descending Houston Center
06:02PM 30.3033 -94.8181 233° Southwest 346 398 13,300 -1,500 Descending Houston Center
06:03PM 30.2650 -94.8747 232° Southwest 349 402 13,000 -540 Descending Houston Center
06:03PM 30.2389 -94.9133 232° Southwest 343 395 12,800 -1,380 Descending Houston Center
06:04PM 30.2081 -94.9639 235° Southwest 346 398 11,600 -1,980 Descending Houston Center
06:04PM 30.1822 -95.0025 232° Southwest 344 396 10,800 -1,560 Descending Houston Center
06:05PM 30.1522 -95.0514 235° Southwest 341 392 10,000 -840 Descending Houston Center
06:05PM 30.1181 -95.0806 216° Southwest 348 400 10,000  Level Houston Center
06:06PM 30.0661 -95.1022 200° South 357 411 10,000  Level Houston Center
06:06PM 30.0333 -95.1178 202° Southwest 355 409 10,000 -420 Level Houston Center
06:07PM 29.9833 -95.1386 200° South 319 367 9,600 -840 Descending Houston Center
06:07PM 29.9464 -95.1550 201° Southwest 271 312 9,100 -1,200 Descending Houston Center
06:08PM 29.9008 -95.1753 201° Southwest 266 306 8,400 -1,140 Descending Houston Center
06:08PM 29.8778 -95.1850 200° South 251 289 8,000 -1,260 Descending Houston Center
06:09PM 29.8367 -95.2044 202° Southwest 253 291 7,100 -1,320 Descending Houston Center
06:09PM 29.8133 -95.2144 200° South 246 283 6,700 -1,020 Descending Houston Center
06:10PM 29.7717 -95.2325 201° Southwest 251 289 6,100 -720 Descending Houston Center
06:10PM 29.7486 -95.2417 199° South 250 288 6,000 -120 Descending Houston Center
06:11PM 29.7028 -95.2417 180° South 260 299 6,000  Level Houston Center
06:11PM 29.6733 -95.2436 183° South 247 284 6,000  Level Houston Center
06:12PM 29.6236 -95.2428 179° South 249 287 6,000  Level Houston Center
06:12PM 29.6039 -95.2425 179° South 246 283 6,000 -420 Level Houston Center
06:13PM 29.5425 -95.2619 195° South 233 268 5,500 -840 Descending Houston Center
06:14PM 29.5075 -95.2994 223° Southwest 240 276 4,500 -1,440 Descending Houston Center
06:15PM 29.4908 -95.3611 253° West 229 264 3,000 -1,260 Descending Houston Center
06:16PM 29.5333 -95.4003 321° Northwest 223 257 2,000 -1,020 Descending Houston Center